createdAt,value
2023-05-21T00:01:48.561Z,24.83
2023-05-21T00:04:51.661Z,21.38
2023-05-21T00:07:55.193Z,20.33
2023-05-21T00:10:57.965Z,20.30
2023-05-21T00:14:00.929Z,20.23
2023-05-21T00:17:03.742Z,24.30
2023-05-21T00:20:07.586Z,22.75
2023-05-21T00:23:10.549Z,25.13
2023-05-21T00:26:13.225Z,22.93
2023-05-21T00:29:17.923Z,24.90
2023-05-21T00:32:20.677Z,20.77
2023-05-21T00:35:23.249Z,21.00
2023-05-21T00:38:28.036Z,22.87
2023-05-21T00:41:31.377Z,23.10
2023-05-21T00:44:36.321Z,23.75
2023-05-21T00:47:39.514Z,21.40
2023-05-21T00:50:42.367Z,23.75
2023-05-21T00:53:45.471Z,24.17
2023-05-21T00:56:48.274Z,22.13
2023-05-21T00:59:52.274Z,21.42
2023-05-21T01:02:55.359Z,26.80
2023-05-21T01:06:00.186Z,22.85
2023-05-21T01:09:05.379Z,22.97
2023-05-21T01:12:09.094Z,22.17
2023-05-21T01:15:12.158Z,23.77
2023-05-21T01:18:16.260Z,20.35
2023-05-21T01:21:19.729Z,21.95
2023-05-21T01:24:22.846Z,23.80
2023-05-21T01:27:31.387Z,20.17
2023-05-21T01:30:34.416Z,22.00
2023-05-21T01:33:45.718Z,23.67
2023-05-21T01:36:55.999Z,20.23
2023-05-21T01:40:48.057Z,23.37
2023-05-21T01:43:51.577Z,20.27
2023-05-21T01:46:55.097Z,20.80
2023-05-21T01:49:58.375Z,22.10
2023-05-21T01:53:01.369Z,26.00
2023-05-21T01:56:05.253Z,24.47
2023-05-21T01:59:08.920Z,25.17
2023-05-21T02:02:11.849Z,24.70
2023-05-21T02:05:14.923Z,25.50
2023-05-21T02:08:19.885Z,30.85
2023-05-21T02:11:22.628Z,26.13
2023-05-21T02:14:25.810Z,28.47
2023-05-21T02:17:33.984Z,27.85
2023-05-21T02:20:37.050Z,30.95
2023-05-21T02:23:39.804Z,28.38
2023-05-21T02:26:43.502Z,34.13
2023-05-21T02:29:48.989Z,32.30
2023-05-21T02:32:51.600Z,31.23
2023-05-21T02:35:54.326Z,31.48
2023-05-21T02:38:57.930Z,36.60
2023-05-21T02:42:04.521Z,37.50
2023-05-21T02:45:09.318Z,30.53
2023-05-21T02:48:12.931Z,34.92
2023-05-21T02:51:17.609Z,37.47
2023-05-21T02:54:21.525Z,34.67
2023-05-21T02:57:24.274Z,31.70
2023-05-21T03:00:29.616Z,32.07
2023-05-21T03:03:32.705Z,38.08
2023-05-21T03:06:38.828Z,39.83
2023-05-21T03:09:43.958Z,37.42
2023-05-21T03:12:47.309Z,35.13
2023-05-21T03:15:50.049Z,36.27
2023-05-21T03:18:52.687Z,40.88
2023-05-21T03:21:56.661Z,36.10
2023-05-21T03:25:00.379Z,34.90
2023-05-21T03:28:03.132Z,42.80
2023-05-21T03:31:26.187Z,36.93
2023-05-21T03:34:43.905Z,35.13
2023-05-21T03:37:46.674Z,36.25
2023-05-21T03:40:49.517Z,29.40
2023-05-21T03:43:55.093Z,30.73
2023-05-21T03:47:00.883Z,29.87
2023-05-21T03:50:07.543Z,32.63
2023-05-21T03:53:11.052Z,36.50
2023-05-21T03:56:13.647Z,38.38
2023-05-21T03:59:17.029Z,39.03
2023-05-21T04:02:22.400Z,35.43
2023-05-21T04:05:25.112Z,32.10
2023-05-21T04:08:27.764Z,37.47
2023-05-21T04:11:31.480Z,33.20
2023-05-21T04:14:34.413Z,34.03
2023-05-21T04:17:37.092Z,30.30
2023-05-21T04:20:40.094Z,30.80
2023-05-21T04:23:42.810Z,33.58
2023-05-21T04:26:54.329Z,31.35
2023-05-21T04:29:58.164Z,30.10
2023-05-21T04:33:03.764Z,29.30
2023-05-21T04:36:09.995Z,26.27
2023-05-21T04:39:12.716Z,26.42
2023-05-21T04:42:15.339Z,25.15
2023-05-21T04:45:18.256Z,26.80
2023-05-21T04:48:24.927Z,23.30
2023-05-21T04:51:27.684Z,23.40
2023-05-21T04:54:30.342Z,22.70
2023-05-21T04:57:33.006Z,28.70
2023-05-21T05:00:37.871Z,22.57
2023-05-21T05:03:41.635Z,23.10
2023-05-21T05:06:44.293Z,19.98
2023-05-21T05:09:46.987Z,19.90
2023-05-21T05:12:50.155Z,18.08
2023-05-21T05:15:54.841Z,18.43
2023-05-21T05:18:57.799Z,20.57
2023-05-21T05:22:00.596Z,19.92
2023-05-21T05:25:03.406Z,18.60
2023-05-21T05:28:06.057Z,16.90
2023-05-21T05:31:12.074Z,19.17
2023-05-21T05:34:14.881Z,19.20
2023-05-21T05:37:17.590Z,18.08
2023-05-21T05:40:20.194Z,18.70
2023-05-21T05:43:22.981Z,16.92
2023-05-21T05:46:25.969Z,17.53
2023-05-21T05:49:28.762Z,18.47
2023-05-21T05:52:31.476Z,16.00
2023-05-21T05:55:34.773Z,16.02
2023-05-21T05:58:37.668Z,15.93
2023-05-21T06:01:48.825Z,14.33
2023-05-21T06:04:52.119Z,16.43
2023-05-21T06:07:54.751Z,14.98
2023-05-21T06:10:57.428Z,14.18
2023-05-21T06:14:01.867Z,13.75
2023-05-21T06:17:04.916Z,13.77
2023-05-21T06:20:09.394Z,13.63
2023-05-21T06:23:12.266Z,15.50
2023-05-21T06:26:15.979Z,14.77
2023-05-21T06:29:18.617Z,14.25
2023-05-21T06:32:23.263Z,15.53
2023-05-21T06:35:26.257Z,15.07
2023-05-21T06:38:29.074Z,14.02
2023-05-21T06:41:31.718Z,14.77
2023-05-21T06:44:38.613Z,17.02
2023-05-21T06:47:59.909Z,12.47
2023-05-21T06:51:02.717Z,12.87
2023-05-21T06:54:05.379Z,12.27
2023-05-21T06:57:28.940Z,14.73
2023-05-21T07:00:31.625Z,13.13
2023-05-21T07:03:34.367Z,12.90
2023-05-21T07:06:38.097Z,12.13
2023-05-21T07:09:43.608Z,13.10
2023-05-21T07:12:46.330Z,13.30
2023-05-21T07:15:49.352Z,11.80
2023-05-21T07:18:52.094Z,11.60
2023-05-21T07:21:56.460Z,11.70
2023-05-21T07:24:59.167Z,11.75
2023-05-21T07:28:01.841Z,12.90
2023-05-21T07:31:04.692Z,11.18
2023-05-21T07:34:13.409Z,10.87
2023-05-21T07:37:17.780Z,11.07
2023-05-21T07:40:20.566Z,14.65
2023-05-21T07:43:24.257Z,13.82
2023-05-21T07:46:26.936Z,11.98
2023-05-21T07:49:34.289Z,12.57
2023-05-21T07:52:37.069Z,12.77
2023-05-21T07:55:47.798Z,12.13
2023-05-21T07:58:54.076Z,11.98
2023-05-21T08:01:57.256Z,12.82
2023-05-21T08:05:02.596Z,12.83
2023-05-21T08:08:07.252Z,10.77
2023-05-21T08:11:10.469Z,11.80
2023-05-21T08:14:13.712Z,12.05
2023-05-21T08:17:16.603Z,10.90
2023-05-21T08:20:20.651Z,13.93
2023-05-21T08:23:23.852Z,10.57
2023-05-21T08:26:30.209Z,12.05
2023-05-21T08:29:33.322Z,11.02
2023-05-21T08:32:36.237Z,9.40
2023-05-21T08:35:39.131Z,10.70
2023-05-21T08:39:05.086Z,10.80
2023-05-21T08:42:35.220Z,9.75
2023-05-21T08:45:41.628Z,11.50
2023-05-21T08:48:45.360Z,12.00
2023-05-21T08:51:50.670Z,11.93
2023-05-21T08:54:55.140Z,12.37
2023-05-21T08:57:57.815Z,13.18
2023-05-21T09:01:01.765Z,11.98
2023-05-21T09:04:19.758Z,11.90
2023-05-21T09:07:30.956Z,10.13
2023-05-21T09:10:56.213Z,10.43
2023-05-21T09:14:04.374Z,11.35
2023-05-21T09:17:32.849Z,9.00
2023-05-21T09:20:46.512Z,11.23
2023-05-21T09:23:57.177Z,13.53
2023-05-21T09:27:00.203Z,12.43
2023-05-21T09:30:05.168Z,12.43
2023-05-21T09:33:08.074Z,11.50
2023-05-21T09:36:11.760Z,13.10
2023-05-21T09:39:29.007Z,10.33
2023-05-21T09:42:33.176Z,10.23
2023-05-21T09:45:36.154Z,11.32
2023-05-21T09:48:43.279Z,9.65
2023-05-21T09:51:54.960Z,10.10
2023-05-21T09:54:57.654Z,9.00
2023-05-21T09:58:00.315Z,10.07
2023-05-21T10:01:02.993Z,13.50
2023-05-21T10:04:09.283Z,10.10
2023-05-21T10:07:12.365Z,10.45
2023-05-21T10:10:15.366Z,11.13
2023-05-21T10:13:21.167Z,10.77
2023-05-21T10:16:24.333Z,9.93
2023-05-21T10:19:28.310Z,10.65
2023-05-21T10:22:31.312Z,11.60
2023-05-21T10:25:35.058Z,8.33
2023-05-21T10:28:37.955Z,10.07
2023-05-21T10:31:43.882Z,10.15
2023-05-21T10:34:48.497Z,9.98
2023-05-21T10:37:53.004Z,10.00
2023-05-21T10:40:58.768Z,10.80
2023-05-21T10:44:37.896Z,9.07
2023-05-21T10:47:56.143Z,10.63
2023-05-21T10:51:45.818Z,9.40
2023-05-21T10:54:53.067Z,11.15
2023-05-21T10:58:02.758Z,9.33
2023-05-21T11:01:06.019Z,10.87
2023-05-21T11:04:08.819Z,10.43
2023-05-21T11:07:13.277Z,10.25
2023-05-21T11:10:38.572Z,11.70
2023-05-21T11:13:51.770Z,10.57
2023-05-21T11:16:55.249Z,11.47
2023-05-21T11:20:05.124Z,10.32
2023-05-21T11:23:07.755Z,11.02
2023-05-21T11:26:12.659Z,11.27
2023-05-21T11:29:15.625Z,11.30
2023-05-21T11:32:20.783Z,8.20
2023-05-21T11:35:23.433Z,12.20
2023-05-21T11:38:31.169Z,9.55
2023-05-21T11:42:01.605Z,12.60
2023-05-21T11:45:06.336Z,9.77
2023-05-21T11:48:13.308Z,9.50
2023-05-21T11:51:15.948Z,13.88
2023-05-21T11:54:19.384Z,9.38
2023-05-21T11:57:23.246Z,10.75
2023-05-21T12:00:26.113Z,17.30
2023-05-21T12:03:30.705Z,9.60
2023-05-21T12:06:34.567Z,9.50
2023-05-21T12:09:48.220Z,10.13
2023-05-21T12:12:56.621Z,12.77
2023-05-21T12:16:00.162Z,14.23
2023-05-21T12:19:04.100Z,9.03
2023-05-21T12:22:07.687Z,9.57
2023-05-21T12:25:11.034Z,9.55
2023-05-21T12:28:13.639Z,9.77
2023-05-21T12:31:16.518Z,11.83
2023-05-21T12:34:46.295Z,9.63
2023-05-21T12:37:50.910Z,9.65
2023-05-21T12:40:53.763Z,9.77
2023-05-21T12:43:56.449Z,9.27
2023-05-21T12:47:02.278Z,9.20
2023-05-21T12:50:08.653Z,9.33
2023-05-21T12:53:14.353Z,11.20
2023-05-21T12:56:17.107Z,10.73
2023-05-21T12:59:19.789Z,10.68
2023-05-21T13:02:33.360Z,10.17
2023-05-21T13:05:36.231Z,10.43
2023-05-21T13:08:38.965Z,9.30
2023-05-21T13:11:41.630Z,10.88
2023-05-21T13:14:44.323Z,12.15
2023-05-21T13:17:49.146Z,9.30
2023-05-21T13:20:52.844Z,12.10
2023-05-21T13:23:55.601Z,10.43
2023-05-21T13:26:58.324Z,9.60
2023-05-21T13:30:02.136Z,9.88
2023-05-21T13:33:06.497Z,13.43
2023-05-21T13:36:09.552Z,8.97
2023-05-21T13:39:12.597Z,11.32
2023-05-21T13:42:16.364Z,10.88
2023-05-21T13:45:20.990Z,9.43
2023-05-21T13:48:23.823Z,9.10
2023-05-21T13:54:33.733Z,10.00
2023-05-21T13:57:36.486Z,10.65
2023-05-21T14:00:41.246Z,11.13
2023-05-21T14:03:43.990Z,10.93
2023-05-21T14:06:47.618Z,11.20
2023-05-21T14:09:50.220Z,9.13
2023-05-21T14:12:53.347Z,8.60
2023-05-21T14:15:57.460Z,10.05
2023-05-21T14:19:00.552Z,10.53
2023-05-21T14:22:03.252Z,9.73
2023-05-21T14:25:06.413Z,10.13
2023-05-21T14:28:09.163Z,9.75
2023-05-21T14:31:12.389Z,8.13
2023-05-21T14:34:14.992Z,11.93
2023-05-21T14:37:17.696Z,9.20
2023-05-21T14:40:20.718Z,10.75
2023-05-21T14:43:23.518Z,10.50
2023-05-21T14:46:26.229Z,10.20
2023-05-21T14:49:29.065Z,10.10
2023-05-21T14:52:31.681Z,11.63
2023-05-21T14:55:37.252Z,9.80
2023-05-21T14:58:40.159Z,10.20
2023-05-21T15:01:42.878Z,13.52
2023-05-21T15:04:45.704Z,9.80
2023-05-21T15:07:48.374Z,7.50
2023-05-21T15:10:51.138Z,10.50
2023-05-21T15:13:53.788Z,8.95
2023-05-21T15:16:56.407Z,9.65
2023-05-21T15:20:01.536Z,7.83
2023-05-21T15:23:15.981Z,8.43
2023-05-21T15:26:19.217Z,10.45
2023-05-21T15:29:21.907Z,9.60
2023-05-21T15:32:24.723Z,9.70
2023-05-21T15:35:27.503Z,10.17
2023-05-21T15:38:30.744Z,13.27
2023-05-21T15:41:37.885Z,9.90
2023-05-21T15:44:40.776Z,10.52
2023-05-21T15:47:43.508Z,9.15
2023-05-21T15:50:46.239Z,7.97
2023-05-21T15:53:48.902Z,10.23
2023-05-21T15:56:51.747Z,10.27
2023-05-21T15:59:55.653Z,8.85
2023-05-21T16:02:58.497Z,8.25
2023-05-21T16:06:01.220Z,9.90
2023-05-21T16:09:04.160Z,8.40
2023-05-21T16:12:07.001Z,9.85
2023-05-21T16:15:09.840Z,11.93
2023-05-21T16:18:12.689Z,10.32
2023-05-21T16:21:16.089Z,17.63
2023-05-21T16:24:18.752Z,10.23
2023-05-21T16:27:21.479Z,9.50
2023-05-21T16:30:24.216Z,8.52
2023-05-21T16:33:26.845Z,10.05
2023-05-21T16:36:29.528Z,9.03
2023-05-21T16:39:32.140Z,11.00
2023-05-21T16:42:34.876Z,9.98
2023-05-21T16:45:44.830Z,8.60
2023-05-21T16:48:47.464Z,9.40
2023-05-21T16:51:50.036Z,10.87
2023-05-21T16:54:52.629Z,9.47
2023-05-21T16:57:55.534Z,13.00
2023-05-21T17:00:58.122Z,9.60
2023-05-21T17:04:04.117Z,10.68
2023-05-21T17:07:06.963Z,9.27
2023-05-21T17:10:10.084Z,10.40
2023-05-21T17:13:21.698Z,10.65
2023-05-21T17:16:25.684Z,10.85
2023-05-21T17:19:28.441Z,10.07
2023-05-21T17:22:31.375Z,12.80
2023-05-21T17:25:34.697Z,10.90
2023-05-21T17:28:39.785Z,11.27
2023-05-21T17:31:42.590Z,10.98
2023-05-21T17:34:45.228Z,16.48
2023-05-21T17:37:48.208Z,10.47
2023-05-21T17:40:50.858Z,16.33
2023-05-21T17:43:53.475Z,16.42
2023-05-21T17:46:56.789Z,8.82
2023-05-21T17:50:01.923Z,11.20
2023-05-21T17:53:04.550Z,9.57
2023-05-21T17:56:07.719Z,13.03
2023-05-21T17:59:10.787Z,11.20
2023-05-21T18:02:13.865Z,12.35
2023-05-21T18:05:16.687Z,13.02
2023-05-21T18:08:19.425Z,11.73
2023-05-21T18:11:22.817Z,10.83
2023-05-21T18:14:25.568Z,10.10
2023-05-21T18:17:28.184Z,12.27
2023-05-21T18:20:34.120Z,10.68
2023-05-21T18:23:37.771Z,11.87
2023-05-21T18:26:46.170Z,12.73
2023-05-21T18:29:49.361Z,10.02
2023-05-21T18:32:52.003Z,9.90
2023-05-21T18:35:54.960Z,10.82
2023-05-21T18:38:57.712Z,10.93
2023-05-21T18:42:12.032Z,17.93
2023-05-21T18:45:16.015Z,12.60
2023-05-21T18:48:20.408Z,10.70
2023-05-21T18:51:23.232Z,11.82
2023-05-21T18:54:25.876Z,14.50
2023-05-21T18:57:28.676Z,11.67
2023-05-21T19:00:31.408Z,12.95
2023-05-21T19:03:34.054Z,14.88
2023-05-21T19:06:36.975Z,10.40
2023-05-21T19:09:39.719Z,14.60
2023-05-21T19:12:43.600Z,17.03
2023-05-21T19:15:48.212Z,15.20
2023-05-21T19:18:51.059Z,14.18
2023-05-21T19:21:54.094Z,11.55
2023-05-21T19:24:56.776Z,12.33
2023-05-21T19:28:00.887Z,12.30
2023-05-21T19:31:03.792Z,11.90
2023-05-21T19:34:12.859Z,13.32
2023-05-21T19:37:15.584Z,12.23
2023-05-21T19:40:18.228Z,20.43
2023-05-21T19:43:23.995Z,14.03
2023-05-21T19:46:26.695Z,15.43
2023-05-21T19:49:29.434Z,13.15
2023-05-21T19:52:34.390Z,14.63
2023-05-21T19:55:37.640Z,12.67
2023-05-21T19:58:40.954Z,12.77
2023-05-21T20:01:44.304Z,12.50
2023-05-21T20:04:46.974Z,12.45
2023-05-21T20:07:52.236Z,12.48
2023-05-21T20:10:54.966Z,13.93
2023-05-21T20:13:57.624Z,13.57
2023-05-21T20:17:05.859Z,14.02
2023-05-21T20:20:10.533Z,12.77
2023-05-21T20:23:13.771Z,14.77
2023-05-21T20:26:17.075Z,15.50
2023-05-21T20:29:21.344Z,13.00
2023-05-21T20:32:24.012Z,13.30
2023-05-21T20:35:27.746Z,13.73
2023-05-21T20:38:33.448Z,18.45
2023-05-21T20:41:37.879Z,14.40
2023-05-21T20:44:40.697Z,12.43
2023-05-21T20:47:43.797Z,11.70
2023-05-21T20:50:47.393Z,15.82
2023-05-21T20:53:53.125Z,12.80
2023-05-21T20:56:59.149Z,13.80
2023-05-21T21:00:01.866Z,15.07
2023-05-21T21:03:05.313Z,18.05
2023-05-21T21:06:09.915Z,17.05
2023-05-21T21:09:12.788Z,14.25
2023-05-21T21:12:25.814Z,13.53
2023-05-21T21:15:29.548Z,14.50
2023-05-21T21:18:32.164Z,15.88
2023-05-21T21:21:34.882Z,13.85
2023-05-21T21:24:37.471Z,13.10
2023-05-21T21:27:40.471Z,17.03
2023-05-21T21:30:43.134Z,19.63
2023-05-21T21:33:45.804Z,17.95
2023-05-21T21:36:48.486Z,15.32
2023-05-21T21:39:54.573Z,16.92
2023-05-21T21:42:57.347Z,12.93
2023-05-21T21:45:59.981Z,17.77
2023-05-21T21:49:02.755Z,14.40
2023-05-21T21:52:07.191Z,18.95
2023-05-21T21:55:13.577Z,16.88
2023-05-21T21:58:20.064Z,14.90
2023-05-21T22:01:25.542Z,16.37
2023-05-21T22:04:28.298Z,16.00
2023-05-21T22:07:32.189Z,17.65
2023-05-21T22:10:41.197Z,17.70
2023-05-21T22:13:44.433Z,15.33
2023-05-21T22:16:53.204Z,16.47
2023-05-21T22:19:56.314Z,19.67
2023-05-21T22:23:00.112Z,17.00
2023-05-21T22:26:02.869Z,23.70
2023-05-21T22:29:05.558Z,19.10
2023-05-21T22:32:08.198Z,17.33
2023-05-21T22:35:12.715Z,17.15
2023-05-21T22:38:18.182Z,18.33
2023-05-21T22:41:21.067Z,23.98
2023-05-21T22:44:23.731Z,17.17
2023-05-21T22:47:26.584Z,15.93
2023-05-21T22:50:29.279Z,19.10
2023-05-21T22:53:33.642Z,18.92
2023-05-21T22:56:36.669Z,19.17
2023-05-21T22:59:39.348Z,18.13
2023-05-21T23:02:42.144Z,17.23
2023-05-21T23:05:48.015Z,18.15
2023-05-21T23:08:50.644Z,20.63
2023-05-21T23:11:53.272Z,16.52
2023-05-21T23:14:55.876Z,19.30
2023-05-21T23:17:59.664Z,21.50
2023-05-21T23:21:02.565Z,17.73
2023-05-21T23:24:12.628Z,18.67
2023-05-21T23:27:15.902Z,21.52
2023-05-21T23:30:18.624Z,24.30
2023-05-21T23:33:21.755Z,24.07
2023-05-21T23:36:24.369Z,23.42
2023-05-21T23:39:29.855Z,24.85
2023-05-21T23:42:32.523Z,24.55
2023-05-21T23:45:35.217Z,24.20
2023-05-21T23:48:40.634Z,21.60
2023-05-21T23:51:43.263Z,23.45
2023-05-21T23:54:46.186Z,21.55
2023-05-21T23:57:48.809Z,22.10
